Time;durP1;ratioP1;P1;durP2;ratioP2;P2;SDS_P1;SDS_P2;PMS_P1;PMS_P2;Temp;Humidity;BMP_temperature;BMP_pressure;BME280_temperature;BME280_humidity;BME280_pressure;Samples;Min_cycle;Max_cycle;Signal;HPM_P1;HPM_P2
2023/08/03 00:00:18;;;;;;;3.95;1.20;;;;;;;;;;5060584;28;20211;-66
2023/08/03 00:02:46;;;;;;;4.22;1.63;;;;;;;;;;5055640;28;20219;-67
2023/08/03 00:05:17;;;;;;;5.45;1.70;;;;;;;;;;5058390;28;20296;-67
2023/08/03 00:07:44;;;;;;;4.72;1.55;;;;;;;;;;5054702;28;20215;-68
2023/08/03 00:10:12;;;;;;;2.35;1.25;;;;;;;;;;5051001;28;20207;-65
2023/08/03 00:12:39;;;;;;;4.10;1.40;;;;;;;;;;5050860;28;20203;-66
2023/08/03 00:15:07;;;;;;;6.40;1.40;;;;;;;;;;5050744;28;20207;-67
2023/08/03 00:17:34;;;;;;;7.70;1.75;;;;;;;;;;5056467;28;20211;-67
2023/08/03 00:20:03;;;;;;;5.28;1.13;;;;;;;;;;5057437;28;20218;-68
2023/08/03 00:22:32;;;;;;;3.63;1.48;;;;;;;;;;5053511;28;20208;-67
2023/08/03 00:24:59;;;;;;;4.45;1.65;;;;;;;;;;5051602;28;20234;-67
2023/08/03 00:27:26;;;;;;;4.78;1.30;;;;;;;;;;5051720;28;20217;-68
2023/08/03 00:29:56;;;;;;;3.33;1.30;;;;;;;;;;5054345;28;20211;-66
2023/08/03 00:32:23;;;;;;;6.50;1.52;;;;;;;;;;5059393;28;20211;-67
2023/08/03 00:34:50;;;;;;;4.25;1.42;;;;;;;;;;5053980;28;20216;-67
2023/08/03 00:37:18;;;;;;;3.10;1.10;;;;;;;;;;5052791;28;20207;-73
2023/08/03 00:39:46;;;;;;;4.53;1.23;;;;;;;;;;5054640;28;20217;-72
2023/08/03 00:42:13;;;;;;;3.75;1.30;;;;;;;;;;5053880;28;20271;-72
2023/08/03 00:44:40;;;;;;;5.10;1.20;;;;;;;;;;5054085;28;20235;-72
2023/08/03 00:47:08;;;;;;;2.90;1.10;;;;;;;;;;5053182;28;20207;-74
2023/08/03 00:49:35;;;;;;;3.70;1.23;;;;;;;;;;5055206;28;20196;-74
2023/08/03 00:52:02;;;;;;;3.05;1.15;;;;;;;;;;5053710;28;20214;-74
2023/08/03 00:54:29;;;;;;;3.35;1.02;;;;;;;;;;5056593;28;20246;-74
2023/08/03 00:56:58;;;;;;;3.63;1.02;;;;;;;;;;5053488;28;20211;-74
2023/08/03 00:59:25;;;;;;;3.45;1.13;;;;;;;;;;5061457;28;20207;-74
2023/08/03 01:01:52;;;;;;;4.10;1.27;;;;;;;;;;5069017;28;20218;-66
2023/08/03 01:04:19;;;;;;;2.22;1.17;;;;;;;;;;5065919;28;20219;-67
2023/08/03 01:06:46;;;;;;;5.25;1.40;;;;;;;;;;5070098;28;20233;-68
2023/08/03 01:09:13;;;;;;;4.15;1.30;;;;;;;;;;5062157;28;20211;-66
2023/08/03 01:11:41;;;;;;;5.05;0.90;;;;;;;;;;5052129;28;20215;-66
2023/08/03 01:14:09;;;;;;;2.50;1.17;;;;;;;;;;5053993;28;20211;-66
2023/08/03 01:16:36;;;;;;;2.72;1.25;;;;;;;;;;5053392;28;20209;-66
2023/08/03 01:19:03;;;;;;;5.80;1.20;;;;;;;;;;5052583;28;20218;-67
2023/08/03 01:21:31;;;;;;;4.80;1.30;;;;;;;;;;5067477;28;20202;-68
2023/08/03 01:23:59;;;;;;;2.35;1.17;;;;;;;;;;5071181;28;20210;-65
2023/08/03 01:26:27;;;;;;;3.08;1.00;;;;;;;;;;5065479;28;20231;-66
2023/08/03 01:28:54;;;;;;;4.75;1.45;;;;;;;;;;5065022;28;20233;-66
2023/08/03 01:31:21;;;;;;;3.78;1.35;;;;;;;;;;5059903;28;20199;-68
2023/08/03 01:33:48;;;;;;;4.75;1.30;;;;;;;;;;5064964;28;20209;-65
2023/08/03 01:36:16;;;;;;;3.35;1.30;;;;;;;;;;5048858;28;20209;-67
2023/08/03 01:38:43;;;;;;;3.90;1.48;;;;;;;;;;5061389;28;20206;-67
2023/08/03 01:41:11;;;;;;;2.70;1.20;;;;;;;;;;5056965;28;20228;-68
2023/08/03 01:43:38;;;;;;;3.70;1.30;;;;;;;;;;5052776;28;20206;-67
2023/08/03 01:46:06;;;;;;;5.82;1.30;;;;;;;;;;5052627;28;20231;-67
2023/08/03 01:48:33;;;;;;;3.92;1.55;;;;;;;;;;5052149;28;20215;-67
2023/08/03 01:51:00;;;;;;;3.45;1.33;;;;;;;;;;5053008;28;20209;-67
2023/08/03 01:53:27;;;;;;;2.90;1.27;;;;;;;;;;5052756;28;20294;-67
2023/08/03 01:55:54;;;;;;;4.53;1.40;;;;;;;;;;5051238;28;20196;-66
2023/08/03 01:58:23;;;;;;;4.20;1.63;;;;;;;;;;5050404;28;20214;-66
2023/08/03 02:00:50;;;;;;;4.32;1.40;;;;;;;;;;5052255;28;20208;-67
2023/08/03 02:03:17;;;;;;;3.53;1.30;;;;;;;;;;5051312;28;20211;-69
2023/08/03 02:05:44;;;;;;;2.85;1.10;;;;;;;;;;5053179;28;20229;-67
2023/08/03 02:08:12;;;;;;;3.08;1.20;;;;;;;;;;5054898;28;20203;-74
2023/08/03 02:10:39;;;;;;;6.32;1.50;;;;;;;;;;5054375;28;20207;-74
2023/08/03 02:13:06;;;;;;;3.90;1.30;;;;;;;;;;5054333;28;20203;-73
2023/08/03 02:15:38;;;;;;;5.93;1.80;;;;;;;;;;5054853;28;20204;-72
2023/08/03 02:18:05;;;;;;;4.72;1.48;;;;;;;;;;5048949;28;20204;-73
2023/08/03 02:20:32;;;;;;;4.93;1.55;;;;;;;;;;5051523;28;20200;-73
2023/08/03 02:22:59;;;;;;;3.20;1.35;;;;;;;;;;5052071;28;20233;-73
2023/08/03 02:25:27;;;;;;;5.53;1.60;;;;;;;;;;5055718;28;20223;-74
2023/08/03 02:27:54;;;;;;;4.78;1.40;;;;;;;;;;5055268;28;20206;-74
2023/08/03 02:30:21;;;;;;;6.45;1.77;;;;;;;;;;5055875;28;20210;-73
2023/08/03 02:32:50;;;;;;;4.07;1.38;;;;;;;;;;5052204;28;20261;-74
2023/08/03 02:35:17;;;;;;;2.72;1.20;;;;;;;;;;5051723;28;20254;-73
2023/08/03 02:37:44;;;;;;;4.40;1.15;;;;;;;;;;5051232;28;20211;-73
2023/08/03 02:40:11;;;;;;;3.97;1.35;;;;;;;;;;5050893;28;20207;-73
2023/08/03 02:42:39;;;;;;;3.30;1.42;;;;;;;;;;5051064;28;20208;-74
2023/08/03 02:45:07;;;;;;;7.63;1.38;;;;;;;;;;5050575;28;20218;-72
2023/08/03 02:47:34;;;;;;;3.85;1.40;;;;;;;;;;5050020;28;20214;-71
2023/08/03 02:50:03;;;;;;;4.22;1.40;;;;;;;;;;5047670;28;20200;-73
2023/08/03 02:52:30;;;;;;;5.18;1.70;;;;;;;;;;5051201;28;20230;-71
2023/08/03 02:54:57;;;;;;;3.08;1.30;;;;;;;;;;5051100;28;20241;-72
2023/08/03 02:57:24;;;;;;;7.13;1.70;;;;;;;;;;5055482;28;20211;-73
2023/08/03 02:59:52;;;;;;;5.43;1.45;;;;;;;;;;5056485;28;20215;-73
2023/08/03 03:02:19;;;;;;;3.03;1.23;;;;;;;;;;5056166;28;20211;-74
2023/08/03 03:04:46;;;;;;;3.42;1.50;;;;;;;;;;5057218;28;20215;-74
2023/08/03 03:07:14;;;;;;;3.53;1.35;;;;;;;;;;5057815;28;20222;-73
2023/08/03 03:09:42;;;;;;;4.70;1.70;;;;;;;;;;5056736;28;20214;-73
2023/08/03 03:12:09;;;;;;;3.10;1.40;;;;;;;;;;5055173;28;20212;-75
2023/08/03 03:14:36;;;;;;;3.03;1.30;;;;;;;;;;5056045;28;20211;-72
2023/08/03 03:17:04;;;;;;;5.55;1.38;;;;;;;;;;5052407;28;20210;-72
2023/08/03 03:19:31;;;;;;;3.03;1.40;;;;;;;;;;5058806;28;20637;-72
2023/08/03 03:21:58;;;;;;;4.38;1.30;;;;;;;;;;5058733;28;20208;-73
2023/08/03 03:24:26;;;;;;;4.15;1.30;;;;;;;;;;5058902;28;20204;-72
2023/08/03 03:26:54;;;;;;;3.58;1.40;;;;;;;;;;5051281;28;20265;-73
2023/08/03 03:29:21;;;;;;;3.92;1.40;;;;;;;;;;5051081;28;20215;-74
2023/08/03 03:31:48;;;;;;;2.90;1.00;;;;;;;;;;5055656;28;20210;-73
2023/08/03 03:34:15;;;;;;;2.10;1.30;;;;;;;;;;5059817;28;20284;-70
2023/08/03 03:36:42;;;;;;;4.28;1.27;;;;;;;;;;5058702;28;20212;-73
2023/08/03 03:39:10;;;;;;;2.60;1.00;;;;;;;;;;5050833;28;20217;-72
2023/08/03 03:41:38;;;;;;;2.90;1.17;;;;;;;;;;5056533;28;20211;-73
2023/08/03 03:44:05;;;;;;;1.92;1.00;;;;;;;;;;5051399;28;20214;-73
2023/08/03 03:46:32;;;;;;;2.17;1.33;;;;;;;;;;5050136;28;20234;-74
2023/08/03 03:49:00;;;;;;;1.95;1.10;;;;;;;;;;5060632;28;20211;-75
2023/08/03 03:51:27;;;;;;;2.72;1.02;;;;;;;;;;5059798;28;20206;-72
2023/08/03 03:53:54;;;;;;;3.75;1.10;;;;;;;;;;5062421;28;20245;-73
2023/08/03 03:56:21;;;;;;;1.92;0.88;;;;;;;;;;5062856;28;20203;-73
2023/08/03 03:58:49;;;;;;;3.13;1.35;;;;;;;;;;5063280;28;20223;-74
2023/08/03 04:01:17;;;;;;;3.25;1.02;;;;;;;;;;5058689;28;20210;-74
2023/08/03 04:03:44;;;;;;;3.58;1.20;;;;;;;;;;5052268;28;20210;-73
2023/08/03 04:06:11;;;;;;;3.33;1.10;;;;;;;;;;5052300;28;20233;-71
2023/08/03 04:08:38;;;;;;;3.97;1.20;;;;;;;;;;5051931;28;20649;-72
2023/08/03 04:11:05;;;;;;;2.60;1.30;;;;;;;;;;5054594;28;20234;-73
2023/08/03 04:13:34;;;;;;;3.70;1.30;;;;;;;;;;5054321;28;20207;-72
2023/08/03 04:16:02;;;;;;;3.97;1.55;;;;;;;;;;5053581;28;20249;-73
2023/08/03 04:18:29;;;;;;;4.10;1.38;;;;;;;;;;5053014;28;20203;-72
2023/08/03 04:20:56;;;;;;;3.00;1.27;;;;;;;;;;5052098;28;20208;-72
2023/08/03 04:23:24;;;;;;;4.22;1.60;;;;;;;;;;5054511;28;20222;-72
2023/08/03 04:25:51;;;;;;;3.85;1.65;;;;;;;;;;5056925;28;20230;-72
2023/08/03 04:28:18;;;;;;;3.13;1.38;;;;;;;;;;5054974;28;20199;-67
2023/08/03 04:30:45;;;;;;;5.30;1.60;;;;;;;;;;5052941;28;20212;-66
2023/08/03 04:33:14;;;;;;;5.68;1.95;;;;;;;;;;5052243;28;20208;-68
2023/08/03 04:35:41;;;;;;;6.30;1.85;;;;;;;;;;5056812;28;20207;-69
2023/08/03 04:38:08;;;;;;;7.57;1.50;;;;;;;;;;5053772;28;20208;-67
2023/08/03 04:40:35;;;;;;;5.10;1.65;;;;;;;;;;5054019;28;20211;-69
2023/08/03 04:43:03;;;;;;;4.25;1.60;;;;;;;;;;5057414;28;20253;-67
2023/08/03 04:45:30;;;;;;;5.38;1.52;;;;;;;;;;5057445;28;20249;-68
2023/08/03 04:47:59;;;;;;;6.07;1.60;;;;;;;;;;5053522;28;20214;-67
2023/08/03 04:50:27;;;;;;;8.25;2.20;;;;;;;;;;5053616;28;20381;-67
2023/08/03 04:52:55;;;;;;;7.93;1.80;;;;;;;;;;5055121;28;20221;-68
2023/08/03 04:55:22;;;;;;;6.63;1.85;;;;;;;;;;5068283;28;20249;-68
2023/08/03 04:57:49;;;;;;;5.65;1.80;;;;;;;;;;5064440;28;20209;-69
2023/08/03 05:00:16;;;;;;;4.07;1.65;;;;;;;;;;5054884;28;20208;-69
2023/08/03 05:02:44;;;;;;;5.70;1.95;;;;;;;;;;5055671;28;20229;-69
2023/08/03 05:05:11;;;;;;;6.85;1.75;;;;;;;;;;5052981;28;20290;-69
2023/08/03 05:07:39;;;;;;;6.60;1.60;;;;;;;;;;5056084;28;20226;-67
2023/08/03 05:10:07;;;;;;;5.68;2.10;;;;;;;;;;5055790;28;20301;-68
2023/08/03 05:12:34;;;;;;;4.20;1.45;;;;;;;;;;5065444;28;20207;-67
2023/08/03 05:15:01;;;;;;;6.00;1.77;;;;;;;;;;5052427;28;20203;-69
2023/08/03 05:17:28;;;;;;;4.05;1.42;;;;;;;;;;5053209;28;20217;-67
2023/08/03 05:19:55;;;;;;;7.00;1.60;;;;;;;;;;5050123;28;20217;-68
2023/08/03 05:22:23;;;;;;;5.85;1.52;;;;;;;;;;5066878;28;20219;-69
2023/08/03 05:24:51;;;;;;;5.00;1.70;;;;;;;;;;5056990;28;20209;-68
2023/08/03 05:27:18;;;;;;;3.33;1.30;;;;;;;;;;5062928;28;20222;-67
2023/08/03 05:29:46;;;;;;;4.28;1.17;;;;;;;;;;5059903;28;20210;-68
2023/08/03 05:32:13;;;;;;;3.45;1.20;;;;;;;;;;5068130;28;20207;-67
2023/08/03 05:34:40;;;;;;;4.88;1.15;;;;;;;;;;5065779;28;20212;-68
2023/08/03 05:37:07;;;;;;;2.10;1.00;;;;;;;;;;5052744;28;20204;-68
2023/08/03 05:39:34;;;;;;;2.42;1.10;;;;;;;;;;5052634;28;20253;-67
2023/08/03 05:42:03;;;;;;;1.08;0.60;;;;;;;;;;5064546;28;20202;-68
2023/08/03 05:44:30;;;;;;;1.42;0.95;;;;;;;;;;5067753;28;20230;-67
2023/08/03 05:46:57;;;;;;;3.10;1.00;;;;;;;;;;5071193;28;20222;-68
2023/08/03 05:49:26;;;;;;;2.85;0.88;;;;;;;;;;5061546;28;20199;-68
2023/08/03 05:51:53;;;;;;;3.30;1.00;;;;;;;;;;5058299;28;20256;-68
2023/08/03 05:54:20;;;;;;;1.00;0.70;;;;;;;;;;5061311;28;20249;-68
2023/08/03 05:56:48;;;;;;;1.58;0.98;;;;;;;;;;5051874;28;20296;-69
2023/08/03 05:59:19;;;;;;;2.67;0.82;;;;;;;;;;5055076;28;20211;-69
2023/08/03 06:01:46;;;;;;;0.93;0.68;;;;;;;;;;5060230;28;20214;-67
2023/08/03 06:04:13;;;;;;;1.08;0.70;;;;;;;;;;5068239;28;20206;-67
2023/08/03 06:06:40;;;;;;;0.65;0.40;;;;;;;;;;5057646;28;20237;-68
2023/08/03 06:09:09;;;;;;;1.60;0.65;;;;;;;;;;5050271;28;20203;-69
2023/08/03 06:11:36;;;;;;;1.63;0.70;;;;;;;;;;5052095;28;20222;-67
2023/08/03 06:14:03;;;;;;;1.83;0.80;;;;;;;;;;5052280;28;20211;-68
2023/08/03 06:16:31;;;;;;;2.25;1.00;;;;;;;;;;5051186;28;20299;-69
2023/08/03 06:18:59;;;;;;;1.30;0.70;;;;;;;;;;5052116;28;20199;-68
2023/08/03 06:21:27;;;;;;;1.67;0.80;;;;;;;;;;5052406;28;20219;-69
2023/08/03 06:23:57;;;;;;;0.85;0.73;;;;;;;;;;5047775;28;20206;-68
2023/08/03 06:26:24;;;;;;;1.88;0.77;;;;;;;;;;5052777;28;20223;-70
2023/08/03 06:28:53;;;;;;;0.65;0.55;;;;;;;;;;5051125;28;20203;-69
2023/08/03 06:31:21;;;;;;;2.88;0.90;;;;;;;;;;5051867;28;20203;-68
2023/08/03 06:33:50;;;;;;;1.55;0.80;;;;;;;;;;5050787;28;20214;-68
2023/08/03 06:36:18;;;;;;;3.10;0.68;;;;;;;;;;5051267;28;20211;-68
2023/08/03 06:38:45;;;;;;;1.70;0.90;;;;;;;;;;5051374;28;20211;-68
2023/08/03 06:41:12;;;;;;;1.63;0.77;;;;;;;;;;5054088;28;20233;-68
2023/08/03 06:43:40;;;;;;;0.88;0.60;;;;;;;;;;5054381;28;20215;-68
2023/08/03 06:46:07;;;;;;;0.90;0.60;;;;;;;;;;5054058;28;20211;-67
2023/08/03 06:48:34;;;;;;;0.95;0.70;;;;;;;;;;5054446;28;20215;-72
2023/08/03 06:51:03;;;;;;;1.38;0.70;;;;;;;;;;5050235;28;20214;-73
2023/08/03 06:53:30;;;;;;;2.05;0.75;;;;;;;;;;5054122;28;20302;-73
2023/08/03 06:55:58;;;;;;;1.85;0.80;;;;;;;;;;5054662;28;20213;-73
2023/08/03 06:58:25;;;;;;;3.67;0.70;;;;;;;;;;5055900;28;20207;-72
2023/08/03 07:00:52;;;;;;;2.28;0.70;;;;;;;;;;5056742;28;20238;-72
2023/08/03 07:03:19;;;;;;;1.52;0.57;;;;;;;;;;5050910;28;20207;-72
2023/08/03 07:05:46;;;;;;;0.68;0.68;;;;;;;;;;5050871;28;20207;-73
2023/08/03 07:08:15;;;;;;;1.13;0.55;;;;;;;;;;5048762;28;20314;-72
2023/08/03 07:10:42;;;;;;;1.75;0.63;;;;;;;;;;5051188;28;20222;-73
2023/08/03 07:13:09;;;;;;;2.28;0.70;;;;;;;;;;5053693;28;20207;-71
2023/08/03 07:15:37;;;;;;;2.60;0.80;;;;;;;;;;5056623;28;20210;-71
2023/08/03 07:18:04;;;;;;;0.60;0.55;;;;;;;;;;5052884;28;20207;-71
2023/08/03 07:20:32;;;;;;;1.30;0.60;;;;;;;;;;5050184;28;20211;-70
2023/08/03 07:22:59;;;;;;;1.23;0.65;;;;;;;;;;5055497;28;20216;-72
2023/08/03 07:25:27;;;;;;;1.40;0.70;;;;;;;;;;5052049;28;20223;-71
2023/08/03 07:27:55;;;;;;;1.25;0.60;;;;;;;;;;5053023;28;20227;-72
2023/08/03 07:30:22;;;;;;;1.55;0.50;;;;;;;;;;5060673;28;20214;-71
2023/08/03 07:32:51;;;;;;;2.42;0.63;;;;;;;;;;5061184;28;20222;-71
2023/08/03 07:35:18;;;;;;;1.48;0.80;;;;;;;;;;5061974;28;20257;-70
2023/08/03 07:37:45;;;;;;;0.90;0.68;;;;;;;;;;5061582;28;20203;-71
2023/08/03 07:40:13;;;;;;;1.35;0.50;;;;;;;;;;5055174;28;20207;-70
2023/08/03 07:42:41;;;;;;;0.75;0.50;;;;;;;;;;5059820;28;20303;-70
2023/08/03 07:45:09;;;;;;;1.70;0.77;;;;;;;;;;5056777;28;20207;-69
2023/08/03 07:47:36;;;;;;;0.65;0.50;;;;;;;;;;5054680;28;20223;-70
2023/08/03 07:50:04;;;;;;;0.93;0.70;;;;;;;;;;5054387;28;20207;-69
2023/08/03 07:52:31;;;;;;;1.52;0.70;;;;;;;;;;5054382;28;20209;-71
2023/08/03 07:54:58;;;;;;;0.63;0.50;;;;;;;;;;5054798;28;20243;-71
2023/08/03 07:57:25;;;;;;;1.13;0.70;;;;;;;;;;5054078;28;20200;-70
2023/08/03 07:59:54;;;;;;;0.88;0.65;;;;;;;;;;5054325;28;20215;-67
2023/08/03 08:02:21;;;;;;;1.55;0.60;;;;;;;;;;5054268;28;20203;-66
2023/08/03 08:04:51;;;;;;;1.25;0.70;;;;;;;;;;5054673;28;20214;-66
2023/08/03 08:07:19;;;;;;;1.15;0.68;;;;;;;;;;5060345;28;20238;-67
2023/08/03 08:09:46;;;;;;;1.58;0.68;;;;;;;;;;5055001;28;20211;-66
2023/08/03 08:12:14;;;;;;;1.20;0.90;;;;;;;;;;5059934;28;20206;-67
2023/08/03 08:14:41;;;;;;;0.68;0.68;;;;;;;;;;5061826;28;20208;-66
2023/08/03 08:17:09;;;;;;;0.70;0.65;;;;;;;;;;5054251;28;20207;-67
2023/08/03 08:19:36;;;;;;;1.08;0.70;;;;;;;;;;5051044;28;20211;-66
2023/08/03 08:22:06;;;;;;;1.30;0.60;;;;;;;;;;5052294;28;20302;-66
2023/08/03 08:24:33;;;;;;;1.30;0.68;;;;;;;;;;5054189;28;20286;-67
2023/08/03 08:27:00;;;;;;;1.45;0.38;;;;;;;;;;5053724;28;20214;-68
2023/08/03 08:29:27;;;;;;;0.68;0.68;;;;;;;;;;5059071;28;20206;-66
2023/08/03 08:31:55;;;;;;;1.00;0.80;;;;;;;;;;5060444;28;20218;-67
2023/08/03 08:34:23;;;;;;;1.20;0.68;;;;;;;;;;5061769;28;20206;-68
2023/08/03 08:36:51;;;;;;;0.95;0.77;;;;;;;;;;5060087;28;20222;-67
2023/08/03 08:39:19;;;;;;;1.30;0.77;;;;;;;;;;5062558;28;20214;-67
2023/08/03 08:41:46;;;;;;;1.27;0.90;;;;;;;;;;5065830;28;20211;-66
2023/08/03 08:44:14;;;;;;;0.70;0.60;;;;;;;;;;5065924;28;20211;-65
2023/08/03 08:46:42;;;;;;;1.17;0.77;;;;;;;;;;5065728;28;20303;-67
2023/08/03 08:49:09;;;;;;;2.03;0.85;;;;;;;;;;5063382;28;20235;-66
2023/08/03 08:51:38;;;;;;;1.25;0.88;;;;;;;;;;5057725;28;20485;-67
2023/08/03 08:54:05;;;;;;;4.28;0.88;;;;;;;;;;5064472;28;20282;-66
2023/08/03 08:56:33;;;;;;;1.15;1.00;;;;;;;;;;5065732;28;20214;-66
2023/08/03 08:59:01;;;;;;;2.42;1.05;;;;;;;;;;5065592;28;20207;-67
2023/08/03 09:01:29;;;;;;;1.80;0.95;;;;;;;;;;5066021;28;20293;-66
2023/08/03 09:03:56;;;;;;;0.93;0.80;;;;;;;;;;5063277;28;20207;-66
2023/08/03 09:06:23;;;;;;;1.05;0.70;;;;;;;;;;5056189;28;20313;-66
2023/08/03 09:08:53;;;;;;;1.77;0.88;;;;;;;;;;5067691;28;20226;-67
2023/08/03 09:11:20;;;;;;;1.45;0.85;;;;;;;;;;5067920;28;20308;-66
2023/08/03 09:13:49;;;;;;;1.40;0.90;;;;;;;;;;5050199;28;20213;-67
2023/08/03 09:16:23;;;;;;;2.05;0.80;;;;;;;;;;5050923;28;20214;-66
2023/08/03 09:18:50;;;;;;;1.52;1.10;;;;;;;;;;5052745;28;20207;-67
2023/08/03 09:21:20;;;;;;;1.77;1.10;;;;;;;;;;5066360;28;20237;-66
2023/08/03 09:23:47;;;;;;;1.98;0.98;;;;;;;;;;5064229;28;20203;-66
2023/08/03 09:26:22;;;;;;;1.73;1.00;;;;;;;;;;5068322;28;20301;-66
2023/08/03 09:28:49;;;;;;;2.75;1.00;;;;;;;;;;5068069;28;20226;-66
2023/08/03 09:31:21;;;;;;;2.90;1.05;;;;;;;;;;5059650;28;20211;-67
2023/08/03 09:33:55;;;;;;;1.67;0.85;;;;;;;;;;5062380;28;20211;-67
2023/08/03 09:36:22;;;;;;;1.95;0.82;;;;;;;;;;5050432;28;20221;-65
2023/08/03 09:38:51;;;;;;;2.30;0.82;;;;;;;;;;5052632;28;20203;-66
2023/08/03 09:41:36;;;;;;;1.63;0.90;;;;;;;;;;5052489;28;20218;-66
2023/08/03 09:44:04;;;;;;;2.20;1.00;;;;;;;;;;5068728;28;20307;-67
2023/08/03 09:46:32;;;;;;;1.80;0.77;;;;;;;;;;5052809;28;20211;-67
2023/08/03 09:48:59;;;;;;;1.50;0.90;;;;;;;;;;5049667;28;20226;-66
2023/08/03 09:51:29;;;;;;;2.22;0.95;;;;;;;;;;5052155;28;20212;-67
2023/08/03 09:54:00;;;;;;;2.97;1.00;;;;;;;;;;5060119;28;20253;-66
2023/08/03 09:56:31;;;;;;;1.85;0.90;;;;;;;;;;5065586;28;20261;-67
2023/08/03 09:59:03;;;;;;;0.60;0.60;;;;;;;;;;5066562;28;20203;-66
2023/08/03 10:01:33;;;;;;;1.33;0.73;;;;;;;;;;5066570;28;20268;-66
2023/08/03 10:04:01;;;;;;;1.65;0.70;;;;;;;;;;5070488;28;20211;-66
2023/08/03 10:06:31;;;;;;;3.03;0.93;;;;;;;;;;5070546;28;20221;-67
2023/08/03 10:09:00;;;;;;;3.10;1.05;;;;;;;;;;5070611;28;20219;-66
2023/08/03 10:11:30;;;;;;;1.63;1.15;;;;;;;;;;5059972;28;20199;-67
2023/08/03 10:13:59;;;;;;;1.80;0.73;;;;;;;;;;5067108;28;20202;-66
2023/08/03 10:16:27;;;;;;;2.22;0.90;;;;;;;;;;5068704;28;20203;-66
2023/08/03 10:18:54;;;;;;;1.02;0.90;;;;;;;;;;5071690;28;20213;-67
2023/08/03 10:21:22;;;;;;;3.97;1.20;;;;;;;;;;5049619;28;20214;-67
2023/08/03 10:24:04;;;;;;;1.60;0.93;;;;;;;;;;5051792;28;20211;-66
2023/08/03 10:26:32;;;;;;;2.15;1.00;;;;;;;;;;5051727;28;20203;-66
2023/08/03 10:28:59;;;;;;;1.35;1.00;;;;;;;;;;5051264;28;20285;-67
2023/08/03 10:31:28;;;;;;;2.55;0.80;;;;;;;;;;5047548;28;20203;-67
2023/08/03 10:34:04;;;;;;;1.52;1.00;;;;;;;;;;5048850;28;20219;-67
2023/08/03 10:36:39;;;;;;;1.33;0.90;;;;;;;;;;5053908;28;20210;-67
2023/08/03 10:39:07;;;;;;;2.35;1.00;;;;;;;;;;5052887;28;20206;-67
2023/08/03 10:41:37;;;;;;;1.08;0.98;;;;;;;;;;5051326;28;20276;-66
2023/08/03 10:44:23;;;;;;;4.00;1.25;;;;;;;;;;5052818;28;20215;-66
2023/08/03 10:46:51;;;;;;;1.15;0.82;;;;;;;;;;5051790;28;20233;-67
2023/08/03 10:49:37;;;;;;;2.08;0.82;;;;;;;;;;5052138;28;20227;-66
2023/08/03 10:52:17;;;;;;;1.58;0.73;;;;;;;;;;5053498;28;20215;-67
2023/08/03 10:54:45;;;;;;;1.42;0.60;;;;;;;;;;5055027;28;20250;-66
2023/08/03 10:57:14;;;;;;;0.60;0.50;;;;;;;;;;5051364;28;20211;-66
2023/08/03 10:59:43;;;;;;;0.80;0.63;;;;;;;;;;5052416;28;20192;-67
2023/08/03 11:02:11;;;;;;;1.60;0.70;;;;;;;;;;5050654;28;20274;-67
2023/08/03 11:04:39;;;;;;;0.50;0.50;;;;;;;;;;5049780;28;20212;-66
2023/08/03 11:07:07;;;;;;;1.25;0.50;;;;;;;;;;5050955;28;20238;-67
2023/08/03 11:09:34;;;;;;;1.30;0.60;;;;;;;;;;5050740;28;20242;-66
2023/08/03 11:12:02;;;;;;;0.50;0.45;;;;;;;;;;5051099;28;20207;-67
2023/08/03 11:14:31;;;;;;;0.65;0.50;;;;;;;;;;5052461;28;20289;-66
2023/08/03 11:16:58;;;;;;;1.17;0.60;;;;;;;;;;5052193;28;20211;-68
2023/08/03 11:19:31;;;;;;;0.60;0.40;;;;;;;;;;5053975;28;20266;-66
2023/08/03 11:21:59;;;;;;;0.38;0.38;;;;;;;;;;5050114;28;20212;-66
2023/08/03 11:24:26;;;;;;;0.30;0.30;;;;;;;;;;5054897;28;20211;-67
2023/08/03 11:26:53;;;;;;;0.40;0.40;;;;;;;;;;5055656;28;20290;-66
2023/08/03 11:29:21;;;;;;;0.40;0.40;;;;;;;;;;5056165;28;20242;-65
2023/08/03 11:31:50;;;;;;;0.68;0.40;;;;;;;;;;5056045;28;20214;-67
2023/08/03 11:34:18;;;;;;;0.60;0.50;;;;;;;;;;5056263;28;20234;-68
2023/08/03 11:36:48;;;;;;;0.57;0.57;;;;;;;;;;5056215;28;20210;-64
2023/08/03 11:39:15;;;;;;;0.80;0.50;;;;;;;;;;5055042;28;20202;-67
2023/08/03 11:41:43;;;;;;;0.50;0.50;;;;;;;;;;5056649;28;20203;-66
2023/08/03 11:44:10;;;;;;;0.50;0.50;;;;;;;;;;5057236;28;20214;-66
2023/08/03 11:46:37;;;;;;;0.40;0.40;;;;;;;;;;5057406;28;20203;-65
2023/08/03 11:49:07;;;;;;;0.65;0.40;;;;;;;;;;5050194;28;20246;-67
2023/08/03 11:51:35;;;;;;;0.85;0.40;;;;;;;;;;5052924;28;20212;-66
2023/08/03 11:54:03;;;;;;;0.50;0.50;;;;;;;;;;5057185;28;20242;-65
2023/08/03 11:56:30;;;;;;;1.13;0.55;;;;;;;;;;5055792;28;20212;-66
2023/08/03 11:58:57;;;;;;;0.70;0.50;;;;;;;;;;5055535;28;20209;-67
2023/08/03 12:01:26;;;;;;;1.10;0.32;;;;;;;;;;5052421;28;20245;-66
2023/08/03 12:04:06;;;;;;;0.50;0.40;;;;;;;;;;5058178;28;20211;-64
2023/08/03 12:06:42;;;;;;;0.30;0.30;;;;;;;;;;5057963;28;20221;-64
2023/08/03 12:09:09;;;;;;;4.00;0.30;;;;;;;;;;5051702;28;20540;-65
2023/08/03 12:11:37;;;;;;;0.40;0.40;;;;;;;;;;5049823;28;20235;-66
2023/08/03 12:14:04;;;;;;;0.77;0.45;;;;;;;;;;5056000;28;20207;-66
2023/08/03 12:16:31;;;;;;;0.90;0.50;;;;;;;;;;5062973;28;20213;-67
2023/08/03 12:18:59;;;;;;;1.15;0.50;;;;;;;;;;5060286;28;20199;-67
2023/08/03 12:21:27;;;;;;;0.50;0.43;;;;;;;;;;5054205;28;20302;-66
2023/08/03 12:23:54;;;;;;;0.57;0.32;;;;;;;;;;5054141;28;20214;-65
2023/08/03 12:26:21;;;;;;;0.40;0.40;;;;;;;;;;5053971;28;20207;-66
2023/08/03 12:28:48;;;;;;;0.40;0.40;;;;;;;;;;5059454;28;20233;-67
2023/08/03 12:31:16;;;;;;;0.40;0.40;;;;;;;;;;5053699;28;20211;-67
2023/08/03 12:33:43;;;;;;;1.00;0.75;;;;;;;;;;5054093;28;20203;-67
2023/08/03 12:36:10;;;;;;;0.68;0.52;;;;;;;;;;5053934;28;20217;-66
2023/08/03 12:38:38;;;;;;;0.50;0.50;;;;;;;;;;5053984;28;20297;-72
2023/08/03 12:41:06;;;;;;;0.50;0.50;;;;;;;;;;5062414;28;20207;-71
2023/08/03 12:43:33;;;;;;;1.75;0.50;;;;;;;;;;5062734;28;20213;-73
2023/08/03 12:46:00;;;;;;;0.30;0.30;;;;;;;;;;5062719;28;20218;-71
2023/08/03 12:48:28;;;;;;;0.52;0.43;;;;;;;;;;5053312;28;20211;-72
2023/08/03 12:50:55;;;;;;;1.10;0.38;;;;;;;;;;5053600;28;20207;-70
2023/08/03 12:53:22;;;;;;;0.45;0.45;;;;;;;;;;5057826;28;20211;-72
2023/08/03 12:55:50;;;;;;;0.50;0.50;;;;;;;;;;5060104;28;20222;-71
2023/08/03 12:58:18;;;;;;;0.43;0.43;;;;;;;;;;5053337;28;20278;-72
2023/08/03 13:00:45;;;;;;;0.47;0.47;;;;;;;;;;5055499;28;20207;-71
2023/08/03 13:03:13;;;;;;;0.95;0.60;;;;;;;;;;5061517;28;20290;-71
2023/08/03 13:05:40;;;;;;;0.77;0.60;;;;;;;;;;5053356;28;20204;-70
2023/08/03 13:08:07;;;;;;;0.50;0.50;;;;;;;;;;5062872;28;20215;-73
2023/08/03 13:10:34;;;;;;;0.45;0.45;;;;;;;;;;5060742;28;20366;-73
2023/08/03 13:13:02;;;;;;;0.80;0.70;;;;;;;;;;5053039;28;20211;-72
2023/08/03 13:15:30;;;;;;;0.90;0.90;;;;;;;;;;5061502;28;20206;-72
2023/08/03 13:17:57;;;;;;;0.70;0.70;;;;;;;;;;5053144;28;20200;-71
2023/08/03 13:20:24;;;;;;;2.08;0.80;;;;;;;;;;5053715;28;20294;-72
2023/08/03 13:22:51;;;;;;;1.27;0.90;;;;;;;;;;5050070;28;20249;-71
2023/08/03 13:25:18;;;;;;;2.97;1.00;;;;;;;;;;5052485;28;20366;-73
2023/08/03 13:27:46;;;;;;;1.75;1.20;;;;;;;;;;5052941;28;20219;-71
2023/08/03 13:30:17;;;;;;;3.22;1.23;;;;;;;;;;5052744;28;20231;-71
2023/08/03 13:32:44;;;;;;;0.80;0.80;;;;;;;;;;5065093;28;20205;-71
2023/08/03 13:35:11;;;;;;;1.85;1.10;;;;;;;;;;5062781;28;20217;-71
2023/08/03 13:37:38;;;;;;;1.38;1.00;;;;;;;;;;5051452;28;20212;-70
2023/08/03 13:40:08;;;;;;;1.98;1.15;;;;;;;;;;5062103;28;20206;-71
2023/08/03 13:42:35;;;;;;;2.85;0.90;;;;;;;;;;5059959;28;20211;-70
2023/08/03 13:45:02;;;;;;;0.93;0.90;;;;;;;;;;5056844;28;20214;-70
2023/08/03 13:47:31;;;;;;;1.80;1.20;;;;;;;;;;5054037;28;20231;-71
2023/08/03 13:49:58;;;;;;;2.70;1.30;;;;;;;;;;5065921;28;20220;-71
2023/08/03 13:52:25;;;;;;;4.25;1.20;;;;;;;;;;5065647;28;20235;-71
2023/08/03 13:54:52;;;;;;;3.25;1.27;;;;;;;;;;5049851;28;20230;-71
2023/08/03 13:57:19;;;;;;;1.00;0.90;;;;;;;;;;5050616;28;20214;-71
2023/08/03 13:59:47;;;;;;;1.17;1.08;;;;;;;;;;5059776;28;20196;-71
2023/08/03 14:02:14;;;;;;;1.50;1.20;;;;;;;;;;5053641;28;20210;-71
2023/08/03 14:04:42;;;;;;;2.22;1.08;;;;;;;;;;5064206;28;20211;-73
2023/08/03 14:07:11;;;;;;;2.15;1.05;;;;;;;;;;5069275;28;20289;-70
2023/08/03 14:09:38;;;;;;;2.75;0.80;;;;;;;;;;5063877;28;20225;-72
2023/08/03 14:12:06;;;;;;;0.75;0.75;;;;;;;;;;5058472;28;20238;-72
2023/08/03 14:14:33;;;;;;;2.33;1.20;;;;;;;;;;5065098;28;20198;-70
2023/08/03 14:17:00;;;;;;;7.18;1.27;;;;;;;;;;5056021;28;20203;-70
2023/08/03 14:19:27;;;;;;;4.13;1.30;;;;;;;;;;5054951;28;20209;-68
2023/08/03 14:21:56;;;;;;;1.77;1.00;;;;;;;;;;5056779;28;20211;-70
2023/08/03 14:24:23;;;;;;;2.08;1.20;;;;;;;;;;5048039;28;20284;-71
2023/08/03 14:26:50;;;;;;;1.30;1.17;;;;;;;;;;5063208;28;20203;-70
2023/08/03 14:29:17;;;;;;;1.88;1.33;;;;;;;;;;5056020;28;20222;-69
2023/08/03 14:31:45;;;;;;;1.52;1.30;;;;;;;;;;5061783;28;20206;-70
2023/08/03 14:34:12;;;;;;;1.40;1.25;;;;;;;;;;5053788;28;20207;-70
2023/08/03 14:36:39;;;;;;;2.28;1.30;;;;;;;;;;5051384;28;20275;-70
2023/08/03 14:39:07;;;;;;;1.55;1.30;;;;;;;;;;5063732;28;20203;-69
2023/08/03 14:41:36;;;;;;;3.47;1.48;;;;;;;;;;5062302;28;20199;-70
2023/08/03 14:44:04;;;;;;;3.58;1.27;;;;;;;;;;5064855;28;20199;-69
2023/08/03 14:46:31;;;;;;;1.52;1.20;;;;;;;;;;5057115;28;20298;-69